모두
Gingin Airport (Gingin, Western Australia) YGIG 기상
|
Gingin, Western Australia (YGIG)
맑은 하늘
가벼운 바람 |
|
21 °C |
YGIG 터미널 지역 예측
| Date | Time (AWST) | Flight Rules | Wind Dir. | Speed | Type | Height AGL (ft) | Visibility | Remarks | ||||||
|---|---|---|---|---|---|---|---|---|---|---|---|---|---|---|
| 04-5월 | 16:00 | VFR | 100° | 10 kt | Clouds and Visibility are OK | >= 6 miles | ||||||||
| 04-5월 | 15:00 | VFR | 100° | 10 kt | Clouds and Visibility are OK | >= 6 miles | ||||||||
| 04-5월 | 14:00 | VFR | 100° | 10 kt | Clouds and Visibility are OK | >= 6 miles | ||||||||
| 04-5월 | 13:00 | VFR | 100° | 10 kt | Clouds and Visibility are OK | >= 6 miles | ||||||||
| 04-5월 | 12:00 | VFR | 100° | 10 kt | Clouds and Visibility are OK | >= 6 miles | ||||||||
최근 YGIG METAR 이력
| Date | Time (AWST) | Flight Rules | Wind Dir. | Speed | Type | Height AGL (ft) | Visibility | Temp (°C) | Temp (°F) | Dew Point (°C) | Dew Point (°F) | Rel. Humid. | Pressure | Density Altitude | Remarks |
|---|---|---|---|---|---|---|---|---|---|---|---|---|---|---|---|
| 04-5월 | 12:00 | n/a | 90° | 9 kt | Missing | 21° | 69° | 9° | 48° | 46% | 1026 mb | 611 ft | |||
| 04-5월 | 11:00 | n/a | 60° | 11 kt | Missing | 20° | 68° | 9° | 48° | 49% | 1027 mb | 462 ft | |||
| 04-5월 | 10:00 | n/a | 90° | 9 kt | Missing | 18° | 64° | 9° | 48° | 56% | 1028 mb | 192 ft | |||
| 04-5월 | 09:00 | n/a | 90° | 10 kt | Missing | 15° | 59° | 9° | 48° | 67% | 1028 mb | -168 ft | |||
| 04-5월 | 08:00 | n/a | 80° | 5 kt | Missing | 12° | 53° | 9° | 48° | 82% | 1028 mb | -528 ft | |||
| 04-5월 | 07:00 | n/a | 110° | 6 kt | Missing | 8° | 46° | 7° | 44° | 93% | 1027 mb | -978 ft | |||
| 04-5월 | 06:00 | n/a | 120° | 4 kt | Missing | 5° | 41° | 5° | 41° | 100% | 1027 mb | -1,338 ft | |||
| 04-5월 | 05:00 | n/a | 110° | 3 kt | Missing | 5° | 41° | 4° | 39° | 93% | 1027 mb | -1,338 ft | |||
| 04-5월 | 04:00 | n/a | 100° | 6 kt | Missing | 6° | 42° | 5° | 41° | 93% | 1026 mb | -1,189 ft | |||
| 04-5월 | 03:00 | n/a | 120° | 4 kt | Missing | 5° | 41° | 4° | 39° | 93% | 1026 mb | -1,309 ft | |||
| 04-5월 | 02:00 | n/a | 120° | 2 kt | Missing | 6° | 42° | 5° | 41° | 93% | 1026 mb | -1,189 ft | |||
| 04-5월 | 01:00 | n/a | 120° | 3 kt | Missing | 7° | 44° | 6° | 42° | 93% | 1026 mb | -1,069 ft | |||
| 04-5월 | 00:00 | n/a | 130° | 3 kt | Missing | 8° | 46° | 7° | 44° | 93% | 1026 mb | -949 ft | |||
| 03-5월 | 23:00 | n/a | 120° | 4 kt | Missing | 8° | 46° | 7° | 44° | 93% | 1026 mb | -949 ft | |||
| 03-5월 | 22:00 | n/a | Calm | Missing | 9° | 48° | 7° | 44° | 87% | 1026 mb | -829 ft | ||||
| 03-5월 | 21:00 | n/a | 110° | 6 kt | Missing | 12° | 53° | 10° | 50° | 88% | 1026 mb | -469 ft | |||
| 03-5월 | 20:00 | n/a | 170° | 7 kt | Missing | 12° | 53° | 8° | 46° | 76% | 1026 mb | -469 ft | |||
| 03-5월 | 19:00 | n/a | 130° | 3 kt | Missing | 13° | 55° | 8° | 46° | 72% | 1025 mb | -319 ft | |||
| 03-5월 | 18:00 | n/a | 110° | 5 kt | Missing | 16° | 60° | 8° | 46° | 59% | 1025 mb | 41 ft | |||
| 03-5월 | 17:00 | n/a | 110° | 12 kt | Missing | 19° | 66° | 8° | 46° | 49% | 1024 mb | 430 ft | |||
| 03-5월 | 16:00 | n/a | 90° | 10 kt | Missing | 20° | 68° | 9° | 48° | 49% | 1024 mb | 550 ft | |||
| 03-5월 | 15:00 | n/a | 100° | 9 kt | Missing | 19° | 66° | 9° | 48° | 52% | 1024 mb | 430 ft | |||
| 03-5월 | 14:00 | n/a | 110° | 9 kt | Missing | 20° | 68° | 9° | 48° | 49% | 1024 mb | 550 ft | |||
| 03-5월 | 13:00 | n/a | 120° | 11 kt | Missing | 19° | 66° | 9° | 48° | 52% | 1024 mb | 430 ft |
로그인
| 귀하의 브라우저는 지원되지 않습니다.. 브라우저를 업그레이드하세요 |
